sensor_id;sensor_type;location;lat;lon;timestamp;P1;durP1;ratioP1;P2;durP2;ratioP2
21743;SDS011;11034;48.556;9.342;2023-07-30T00:00:40;4.30;;;3.58;;
21743;SDS011;11034;48.556;9.342;2023-07-30T00:03:08;4.80;;;4.30;;
21743;SDS011;11034;48.556;9.342;2023-07-30T00:05:36;5.28;;;3.83;;
21743;SDS011;11034;48.556;9.342;2023-07-30T00:08:05;5.65;;;3.80;;
21743;SDS011;11034;48.556;9.342;2023-07-30T00:10:34;5.40;;;3.55;;
21743;SDS011;11034;48.556;9.342;2023-07-30T00:13:03;3.65;;;3.35;;
21743;SDS011;11034;48.556;9.342;2023-07-30T00:15:31;3.70;;;3.33;;
21743;SDS011;11034;48.556;9.342;2023-07-30T00:18:00;6.25;;;4.07;;
21743;SDS011;11034;48.556;9.342;2023-07-30T00:20:28;4.15;;;3.30;;
21743;SDS011;11034;48.556;9.342;2023-07-30T00:22:56;5.43;;;4.07;;
21743;SDS011;11034;48.556;9.342;2023-07-30T00:25:24;5.15;;;3.30;;
21743;SDS011;11034;48.556;9.342;2023-07-30T00:27:53;3.47;;;3.05;;
21743;SDS011;11034;48.556;9.342;2023-07-30T00:30:21;4.72;;;3.33;;
21743;SDS011;11034;48.556;9.342;2023-07-30T00:32:49;6.32;;;3.70;;
21743;SDS011;11034;48.556;9.342;2023-07-30T00:35:18;4.32;;;3.20;;
21743;SDS011;11034;48.556;9.342;2023-07-30T00:37:46;4.43;;;3.40;;
21743;SDS011;11034;48.556;9.342;2023-07-30T00:40:14;4.55;;;3.35;;
21743;SDS011;11034;48.556;9.342;2023-07-30T00:42:42;3.65;;;3.17;;
21743;SDS011;11034;48.556;9.342;2023-07-30T00:45:11;4.05;;;3.30;;
21743;SDS011;11034;48.556;9.342;2023-07-30T00:47:39;4.43;;;3.30;;
21743;SDS011;11034;48.556;9.342;2023-07-30T00:50:09;6.00;;;3.85;;
21743;SDS011;11034;48.556;9.342;2023-07-30T00:52:40;4.25;;;3.42;;
21743;SDS011;11034;48.556;9.342;2023-07-30T00:55:08;4.53;;;3.88;;
21743;SDS011;11034;48.556;9.342;2023-07-30T00:57:36;5.78;;;3.63;;
21743;SDS011;11034;48.556;9.342;2023-07-30T01:00:05;4.82;;;3.60;;
21743;SDS011;11034;48.556;9.342;2023-07-30T01:02:37;5.15;;;4.03;;
21743;SDS011;11034;48.556;9.342;2023-07-30T01:05:05;4.55;;;3.65;;
21743;SDS011;11034;48.556;9.342;2023-07-30T01:07:33;4.32;;;3.35;;
21743;SDS011;11034;48.556;9.342;2023-07-30T01:10:02;6.32;;;3.72;;
21743;SDS011;11034;48.556;9.342;2023-07-30T01:12:30;4.97;;;3.70;;
21743;SDS011;11034;48.556;9.342;2023-07-30T01:15:00;3.58;;;3.22;;
21743;SDS011;11034;48.556;9.342;2023-07-30T01:17:28;3.72;;;3.33;;
21743;SDS011;11034;48.556;9.342;2023-07-30T01:19:58;4.00;;;3.20;;
21743;SDS011;11034;48.556;9.342;2023-07-30T01:22:27;4.93;;;3.58;;
21743;SDS011;11034;48.556;9.342;2023-07-30T01:24:55;4.50;;;3.30;;
21743;SDS011;11034;48.556;9.342;2023-07-30T01:27:24;4.10;;;3.45;;
21743;SDS011;11034;48.556;9.342;2023-07-30T01:29:57;3.50;;;3.20;;
21743;SDS011;11034;48.556;9.342;2023-07-30T01:32:29;5.65;;;3.25;;
21743;SDS011;11034;48.556;9.342;2023-07-30T01:34:58;3.78;;;2.92;;
21743;SDS011;11034;48.556;9.342;2023-07-30T01:37:30;5.25;;;3.40;;
21743;SDS011;11034;48.556;9.342;2023-07-30T01:39:58;7.32;;;3.38;;
21743;SDS011;11034;48.556;9.342;2023-07-30T01:42:28;4.25;;;3.28;;
21743;SDS011;11034;48.556;9.342;2023-07-30T01:44:56;4.93;;;3.25;;
21743;SDS011;11034;48.556;9.342;2023-07-30T01:47:24;3.85;;;3.30;;
21743;SDS011;11034;48.556;9.342;2023-07-30T01:49:52;4.00;;;3.17;;
21743;SDS011;11034;48.556;9.342;2023-07-30T01:52:20;5.03;;;3.30;;
21743;SDS011;11034;48.556;9.342;2023-07-30T01:54:49;6.20;;;3.60;;
21743;SDS011;11034;48.556;9.342;2023-07-30T01:57:17;6.00;;;3.03;;
21743;SDS011;11034;48.556;9.342;2023-07-30T01:59:45;3.65;;;3.20;;
21743;SDS011;11034;48.556;9.342;2023-07-30T02:02:14;4.03;;;3.45;;
21743;SDS011;11034;48.556;9.342;2023-07-30T02:04:42;4.93;;;3.35;;
21743;SDS011;11034;48.556;9.342;2023-07-30T02:07:10;4.82;;;2.88;;
21743;SDS011;11034;48.556;9.342;2023-07-30T02:09:38;3.92;;;3.13;;
21743;SDS011;11034;48.556;9.342;2023-07-30T02:12:08;4.25;;;3.00;;
21743;SDS011;11034;48.556;9.342;2023-07-30T02:14:36;5.28;;;3.20;;
21743;SDS011;11034;48.556;9.342;2023-07-30T02:17:04;4.47;;;3.15;;
21743;SDS011;11034;48.556;9.342;2023-07-30T02:19:32;3.90;;;3.05;;
21743;SDS011;11034;48.556;9.342;2023-07-30T02:22:01;3.47;;;2.53;;
21743;SDS011;11034;48.556;9.342;2023-07-30T02:24:29;6.28;;;3.10;;
21743;SDS011;11034;48.556;9.342;2023-07-30T02:26:57;3.45;;;2.90;;
21743;SDS011;11034;48.556;9.342;2023-07-30T02:29:26;5.53;;;3.22;;
21743;SDS011;11034;48.556;9.342;2023-07-30T02:31:55;3.38;;;3.03;;
21743;SDS011;11034;48.556;9.342;2023-07-30T02:34:23;4.05;;;3.00;;
21743;SDS011;11034;48.556;9.342;2023-07-30T02:36:51;5.45;;;3.17;;
21743;SDS011;11034;48.556;9.342;2023-07-30T02:39:19;4.47;;;3.38;;
21743;SDS011;11034;48.556;9.342;2023-07-30T02:41:48;4.65;;;3.25;;
21743;SDS011;11034;48.556;9.342;2023-07-30T02:44:16;5.25;;;3.40;;
21743;SDS011;11034;48.556;9.342;2023-07-30T02:46:45;4.10;;;3.10;;
21743;SDS011;11034;48.556;9.342;2023-07-30T02:49:13;3.88;;;2.67;;
21743;SDS011;11034;48.556;9.342;2023-07-30T02:51:42;4.18;;;3.10;;
21743;SDS011;11034;48.556;9.342;2023-07-30T02:54:14;3.85;;;3.05;;
21743;SDS011;11034;48.556;9.342;2023-07-30T02:56:43;4.03;;;3.20;;
21743;SDS011;11034;48.556;9.342;2023-07-30T02:59:14;3.08;;;2.58;;
21743;SDS011;11034;48.556;9.342;2023-07-30T03:01:42;3.20;;;2.88;;
21743;SDS011;11034;48.556;9.342;2023-07-30T03:04:12;3.83;;;3.00;;
21743;SDS011;11034;48.556;9.342;2023-07-30T03:06:40;5.80;;;3.30;;
21743;SDS011;11034;48.556;9.342;2023-07-30T03:09:08;4.13;;;3.08;;
21743;SDS011;11034;48.556;9.342;2023-07-30T03:11:36;4.25;;;2.92;;
21743;SDS011;11034;48.556;9.342;2023-07-30T03:14:05;3.20;;;2.90;;
21743;SDS011;11034;48.556;9.342;2023-07-30T03:16:33;3.90;;;2.53;;
21743;SDS011;11034;48.556;9.342;2023-07-30T03:19:01;3.20;;;2.65;;
21743;SDS011;11034;48.556;9.342;2023-07-30T03:21:30;4.03;;;2.78;;
21743;SDS011;11034;48.556;9.342;2023-07-30T03:23:59;4.78;;;2.47;;
21743;SDS011;11034;48.556;9.342;2023-07-30T03:26:27;4.10;;;2.38;;
21743;SDS011;11034;48.556;9.342;2023-07-30T03:28:55;5.50;;;2.55;;
21743;SDS011;11034;48.556;9.342;2023-07-30T03:31:23;2.92;;;2.63;;
21743;SDS011;11034;48.556;9.342;2023-07-30T03:33:52;5.10;;;2.70;;
21743;SDS011;11034;48.556;9.342;2023-07-30T03:36:20;3.03;;;2.50;;
21743;SDS011;11034;48.556;9.342;2023-07-30T03:38:50;3.50;;;2.85;;
21743;SDS011;11034;48.556;9.342;2023-07-30T03:41:18;3.17;;;2.67;;
21743;SDS011;11034;48.556;9.342;2023-07-30T03:43:46;3.10;;;2.75;;
21743;SDS011;11034;48.556;9.342;2023-07-30T03:46:14;2.70;;;2.50;;
21743;SDS011;11034;48.556;9.342;2023-07-30T03:48:43;4.97;;;2.85;;
21743;SDS011;11034;48.556;9.342;2023-07-30T03:51:11;2.47;;;2.20;;
21743;SDS011;11034;48.556;9.342;2023-07-30T03:53:39;2.88;;;2.60;;
21743;SDS011;11034;48.556;9.342;2023-07-30T03:56:10;2.47;;;2.22;;
21743;SDS011;11034;48.556;9.342;2023-07-30T03:58:38;3.55;;;2.70;;
21743;SDS011;11034;48.556;9.342;2023-07-30T04:01:06;3.70;;;2.67;;
21743;SDS011;11034;48.556;9.342;2023-07-30T04:03:35;3.20;;;2.35;;
21743;SDS011;11034;48.556;9.342;2023-07-30T04:06:03;3.40;;;2.65;;
21743;SDS011;11034;48.556;9.342;2023-07-30T04:08:31;3.17;;;2.78;;
21743;SDS011;11034;48.556;9.342;2023-07-30T04:10:59;2.70;;;2.22;;
21743;SDS011;11034;48.556;9.342;2023-07-30T04:13:29;3.92;;;2.60;;
21743;SDS011;11034;48.556;9.342;2023-07-30T04:15:57;4.03;;;2.40;;
21743;SDS011;11034;48.556;9.342;2023-07-30T04:18:27;3.75;;;2.70;;
21743;SDS011;11034;48.556;9.342;2023-07-30T04:20:55;4.13;;;2.45;;
21743;SDS011;11034;48.556;9.342;2023-07-30T04:23:24;2.97;;;2.70;;
21743;SDS011;11034;48.556;9.342;2023-07-30T04:25:52;4.00;;;2.63;;
21743;SDS011;11034;48.556;9.342;2023-07-30T04:28:20;4.60;;;2.55;;
21743;SDS011;11034;48.556;9.342;2023-07-30T04:30:49;5.90;;;2.60;;
21743;SDS011;11034;48.556;9.342;2023-07-30T04:33:18;3.42;;;2.55;;
21743;SDS011;11034;48.556;9.342;2023-07-30T04:35:46;4.50;;;2.58;;
21743;SDS011;11034;48.556;9.342;2023-07-30T04:38:14;4.57;;;2.42;;
21743;SDS011;11034;48.556;9.342;2023-07-30T04:40:42;4.88;;;2.40;;
21743;SDS011;11034;48.556;9.342;2023-07-30T04:43:10;3.35;;;2.40;;
21743;SDS011;11034;48.556;9.342;2023-07-30T04:45:38;3.58;;;2.28;;
21743;SDS011;11034;48.556;9.342;2023-07-30T04:48:08;3.08;;;2.75;;
21743;SDS011;11034;48.556;9.342;2023-07-30T04:50:36;3.38;;;2.25;;
21743;SDS011;11034;48.556;9.342;2023-07-30T04:53:05;2.53;;;2.22;;
21743;SDS011;11034;48.556;9.342;2023-07-30T04:55:34;2.67;;;2.25;;
21743;SDS011;11034;48.556;9.342;2023-07-30T04:58:02;5.20;;;2.30;;
21743;SDS011;11034;48.556;9.342;2023-07-30T05:00:30;3.13;;;2.50;;
21743;SDS011;11034;48.556;9.342;2023-07-30T05:02:58;3.75;;;2.50;;
21743;SDS011;11034;48.556;9.342;2023-07-30T05:05:27;3.00;;;2.38;;
21743;SDS011;11034;48.556;9.342;2023-07-30T05:07:55;3.03;;;2.50;;
21743;SDS011;11034;48.556;9.342;2023-07-30T05:10:23;3.45;;;2.17;;
21743;SDS011;11034;48.556;9.342;2023-07-30T05:12:51;4.15;;;2.63;;
21743;SDS011;11034;48.556;9.342;2023-07-30T05:15:19;3.58;;;2.20;;
21743;SDS011;11034;48.556;9.342;2023-07-30T05:17:47;3.22;;;1.90;;
21743;SDS011;11034;48.556;9.342;2023-07-30T05:20:15;3.28;;;1.98;;
21743;SDS011;11034;48.556;9.342;2023-07-30T05:22:45;2.10;;;1.90;;
21743;SDS011;11034;48.556;9.342;2023-07-30T05:25:13;1.85;;;1.70;;
21743;SDS011;11034;48.556;9.342;2023-07-30T05:27:41;4.63;;;1.80;;
21743;SDS011;11034;48.556;9.342;2023-07-30T05:30:10;2.58;;;2.13;;
21743;SDS011;11034;48.556;9.342;2023-07-30T05:32:38;3.63;;;2.22;;
21743;SDS011;11034;48.556;9.342;2023-07-30T05:35:06;5.20;;;2.30;;
21743;SDS011;11034;48.556;9.342;2023-07-30T05:37:35;2.83;;;2.25;;
21743;SDS011;11034;48.556;9.342;2023-07-30T05:40:05;2.97;;;2.35;;
21743;SDS011;11034;48.556;9.342;2023-07-30T05:42:34;4.28;;;2.10;;
21743;SDS011;11034;48.556;9.342;2023-07-30T05:45:02;3.72;;;2.25;;
21743;SDS011;11034;48.556;9.342;2023-07-30T05:47:31;2.70;;;2.15;;
21743;SDS011;11034;48.556;9.342;2023-07-30T05:49:59;2.92;;;2.13;;
21743;SDS011;11034;48.556;9.342;2023-07-30T05:52:27;2.95;;;2.42;;
21743;SDS011;11034;48.556;9.342;2023-07-30T05:54:55;2.78;;;2.35;;
21743;SDS011;11034;48.556;9.342;2023-07-30T05:57:25;3.55;;;2.20;;
21743;SDS011;11034;48.556;9.342;2023-07-30T05:59:53;2.50;;;2.30;;
21743;SDS011;11034;48.556;9.342;2023-07-30T06:02:21;3.55;;;2.40;;
21743;SDS011;11034;48.556;9.342;2023-07-30T06:04:49;4.25;;;2.75;;
21743;SDS011;11034;48.556;9.342;2023-07-30T06:07:17;2.83;;;2.15;;
21743;SDS011;11034;48.556;9.342;2023-07-30T06:09:45;3.28;;;2.33;;
21743;SDS011;11034;48.556;9.342;2023-07-30T06:12:13;2.60;;;2.08;;
21743;SDS011;11034;48.556;9.342;2023-07-30T06:14:42;2.92;;;2.55;;
21743;SDS011;11034;48.556;9.342;2023-07-30T06:17:10;3.85;;;2.50;;
21743;SDS011;11034;48.556;9.342;2023-07-30T06:19:39;6.43;;;2.60;;
21743;SDS011;11034;48.556;9.342;2023-07-30T06:22:07;2.72;;;2.40;;
21743;SDS011;11034;48.556;9.342;2023-07-30T06:24:35;2.55;;;2.35;;
21743;SDS011;11034;48.556;9.342;2023-07-30T06:27:03;4.88;;;2.47;;
21743;SDS011;11034;48.556;9.342;2023-07-30T06:29:32;4.07;;;2.45;;
21743;SDS011;11034;48.556;9.342;2023-07-30T06:32:02;3.22;;;2.60;;
21743;SDS011;11034;48.556;9.342;2023-07-30T06:34:30;3.97;;;2.50;;
21743;SDS011;11034;48.556;9.342;2023-07-30T06:36:58;4.15;;;2.65;;
21743;SDS011;11034;48.556;9.342;2023-07-30T06:39:26;2.65;;;2.40;;
21743;SDS011;11034;48.556;9.342;2023-07-30T06:41:55;4.22;;;2.85;;
21743;SDS011;11034;48.556;9.342;2023-07-30T06:44:23;4.00;;;2.78;;
21743;SDS011;11034;48.556;9.342;2023-07-30T06:46:51;5.35;;;2.50;;
21743;SDS011;11034;48.556;9.342;2023-07-30T06:49:21;2.90;;;2.60;;
21743;SDS011;11034;48.556;9.342;2023-07-30T06:51:50;2.33;;;2.13;;
21743;SDS011;11034;48.556;9.342;2023-07-30T06:54:18;2.25;;;2.05;;
21743;SDS011;11034;48.556;9.342;2023-07-30T06:56:47;2.78;;;2.03;;
21743;SDS011;11034;48.556;9.342;2023-07-30T06:59:15;4.07;;;2.10;;
21743;SDS011;11034;48.556;9.342;2023-07-30T07:01:43;2.38;;;2.17;;
21743;SDS011;11034;48.556;9.342;2023-07-30T07:04:11;2.53;;;2.13;;
21743;SDS011;11034;48.556;9.342;2023-07-30T07:06:41;2.15;;;1.80;;
21743;SDS011;11034;48.556;9.342;2023-07-30T07:09:09;3.38;;;1.73;;
21743;SDS011;11034;48.556;9.342;2023-07-30T07:11:37;2.65;;;2.00;;
21743;SDS011;11034;48.556;9.342;2023-07-30T07:14:06;2.83;;;2.22;;
21743;SDS011;11034;48.556;9.342;2023-07-30T07:16:34;3.05;;;1.65;;
21743;SDS011;11034;48.556;9.342;2023-07-30T07:19:02;2.53;;;1.70;;
21743;SDS011;11034;48.556;9.342;2023-07-30T07:21:30;2.10;;;1.83;;
21743;SDS011;11034;48.556;9.342;2023-07-30T07:23:59;3.95;;;1.80;;
21743;SDS011;11034;48.556;9.342;2023-07-30T07:26:28;3.03;;;1.80;;
21743;SDS011;11034;48.556;9.342;2023-07-30T07:28:56;1.90;;;1.70;;
21743;SDS011;11034;48.556;9.342;2023-07-30T07:31:24;3.17;;;1.92;;
21743;SDS011;11034;48.556;9.342;2023-07-30T07:33:53;3.35;;;1.80;;
21743;SDS011;11034;48.556;9.342;2023-07-30T07:36:21;3.47;;;1.85;;
21743;SDS011;11034;48.556;9.342;2023-07-30T07:38:49;4.22;;;1.83;;
21743;SDS011;11034;48.556;9.342;2023-07-30T07:41:19;4.80;;;2.13;;
21743;SDS011;11034;48.556;9.342;2023-07-30T07:43:47;3.70;;;1.98;;
21743;SDS011;11034;48.556;9.342;2023-07-30T07:46:15;3.97;;;1.98;;
21743;SDS011;11034;48.556;9.342;2023-07-30T07:48:43;3.00;;;2.00;;
21743;SDS011;11034;48.556;9.342;2023-07-30T07:51:12;3.78;;;2.38;;
21743;SDS011;11034;48.556;9.342;2023-07-30T07:53:40;5.43;;;2.20;;
21743;SDS011;11034;48.556;9.342;2023-07-30T07:56:08;3.78;;;1.95;;
21743;SDS011;11034;48.556;9.342;2023-07-30T07:58:37;3.53;;;2.00;;
21743;SDS011;11034;48.556;9.342;2023-07-30T08:01:05;3.05;;;2.00;;
21743;SDS011;11034;48.556;9.342;2023-07-30T08:03:33;2.97;;;2.10;;
21743;SDS011;11034;48.556;9.342;2023-07-30T08:06:02;3.67;;;2.30;;
21743;SDS011;11034;48.556;9.342;2023-07-30T08:08:30;4.15;;;1.98;;
21743;SDS011;11034;48.556;9.342;2023-07-30T08:10:58;3.22;;;2.28;;
21743;SDS011;11034;48.556;9.342;2023-07-30T08:13:26;2.25;;;1.90;;
21743;SDS011;11034;48.556;9.342;2023-07-30T08:15:55;4.00;;;2.47;;
21743;SDS011;11034;48.556;9.342;2023-07-30T08:18:23;2.42;;;2.17;;
21743;SDS011;11034;48.556;9.342;2023-07-30T08:20:51;3.22;;;2.25;;
21743;SDS011;11034;48.556;9.342;2023-07-30T08:23:19;2.78;;;2.05;;
21743;SDS011;11034;48.556;9.342;2023-07-30T08:25:47;3.17;;;2.40;;
21743;SDS011;11034;48.556;9.342;2023-07-30T08:28:18;2.80;;;2.00;;
21743;SDS011;11034;48.556;9.342;2023-07-30T08:30:46;3.63;;;1.80;;
21743;SDS011;11034;48.556;9.342;2023-07-30T08:33:16;2.00;;;1.58;;
21743;SDS011;11034;48.556;9.342;2023-07-30T08:35:44;1.85;;;1.50;;
21743;SDS011;11034;48.556;9.342;2023-07-30T08:38:12;3.50;;;1.90;;
21743;SDS011;11034;48.556;9.342;2023-07-30T08:40:40;2.65;;;1.60;;
21743;SDS011;11034;48.556;9.342;2023-07-30T08:43:08;2.42;;;1.75;;
21743;SDS011;11034;48.556;9.342;2023-07-30T08:45:36;2.28;;;1.50;;
21743;SDS011;11034;48.556;9.342;2023-07-30T08:48:04;2.08;;;1.50;;
21743;SDS011;11034;48.556;9.342;2023-07-30T08:50:34;2.22;;;1.60;;
21743;SDS011;11034;48.556;9.342;2023-07-30T08:53:05;3.13;;;1.70;;
21743;SDS011;11034;48.556;9.342;2023-07-30T08:55:34;1.80;;;1.70;;
21743;SDS011;11034;48.556;9.342;2023-07-30T08:58:03;4.35;;;1.83;;
21743;SDS011;11034;48.556;9.342;2023-07-30T09:00:34;1.73;;;1.60;;
21743;SDS011;11034;48.556;9.342;2023-07-30T09:03:04;2.97;;;1.42;;
21743;SDS011;11034;48.556;9.342;2023-07-30T09:05:34;2.53;;;1.58;;
21743;SDS011;11034;48.556;9.342;2023-07-30T09:08:04;2.53;;;1.75;;
21743;SDS011;11034;48.556;9.342;2023-07-30T09:10:33;3.75;;;1.90;;
21743;SDS011;11034;48.556;9.342;2023-07-30T09:13:02;5.03;;;1.70;;
21743;SDS011;11034;48.556;9.342;2023-07-30T09:15:30;2.85;;;1.70;;
21743;SDS011;11034;48.556;9.342;2023-07-30T09:17:59;2.28;;;1.50;;
21743;SDS011;11034;48.556;9.342;2023-07-30T09:20:28;2.90;;;1.77;;
21743;SDS011;11034;48.556;9.342;2023-07-30T09:23:06;3.08;;;1.50;;
21743;SDS011;11034;48.556;9.342;2023-07-30T09:25:35;3.00;;;1.50;;
21743;SDS011;11034;48.556;9.342;2023-07-30T09:28:04;2.65;;;1.60;;
21743;SDS011;11034;48.556;9.342;2023-07-30T09:30:33;1.52;;;1.20;;
21743;SDS011;11034;48.556;9.342;2023-07-30T09:33:01;2.50;;;1.50;;
21743;SDS011;11034;48.556;9.342;2023-07-30T09:35:32;2.08;;;1.70;;
21743;SDS011;11034;48.556;9.342;2023-07-30T09:38:02;2.83;;;1.60;;
21743;SDS011;11034;48.556;9.342;2023-07-30T09:40:31;2.65;;;1.80;;
21743;SDS011;11034;48.556;9.342;2023-07-30T09:43:01;1.88;;;1.50;;
21743;SDS011;11034;48.556;9.342;2023-07-30T09:45:32;2.63;;;1.90;;
21743;SDS011;11034;48.556;9.342;2023-07-30T09:48:02;2.70;;;2.00;;
21743;SDS011;11034;48.556;9.342;2023-07-30T09:50:32;3.35;;;2.25;;
21743;SDS011;11034;48.556;9.342;2023-07-30T09:53:03;4.22;;;1.85;;
21743;SDS011;11034;48.556;9.342;2023-07-30T09:55:31;2.15;;;1.92;;
21743;SDS011;11034;48.556;9.342;2023-07-30T09:58:00;1.88;;;1.73;;
21743;SDS011;11034;48.556;9.342;2023-07-30T10:00:28;2.40;;;1.92;;
21743;SDS011;11034;48.556;9.342;2023-07-30T10:02:58;2.90;;;2.30;;
21743;SDS011;11034;48.556;9.342;2023-07-30T10:05:29;2.63;;;1.98;;
21743;SDS011;11034;48.556;9.342;2023-07-30T10:08:02;2.20;;;1.80;;
21743;SDS011;11034;48.556;9.342;2023-07-30T10:10:36;3.25;;;1.88;;
21743;SDS011;11034;48.556;9.342;2023-07-30T10:13:06;2.95;;;1.80;;
21743;SDS011;11034;48.556;9.342;2023-07-30T10:15:37;1.60;;;1.50;;
21743;SDS011;11034;48.556;9.342;2023-07-30T10:18:06;4.95;;;1.90;;
21743;SDS011;11034;48.556;9.342;2023-07-30T10:20:35;1.80;;;1.70;;
21743;SDS011;11034;48.556;9.342;2023-07-30T10:23:05;3.03;;;1.65;;
21743;SDS011;11034;48.556;9.342;2023-07-30T10:25:43;3.67;;;1.90;;
21743;SDS011;11034;48.556;9.342;2023-07-30T10:28:27;2.35;;;1.80;;
21743;SDS011;11034;48.556;9.342;2023-07-30T10:30:59;3.05;;;1.92;;
21743;SDS011;11034;48.556;9.342;2023-07-30T10:33:46;2.30;;;1.60;;
21743;SDS011;11034;48.556;9.342;2023-07-30T10:36:19;2.30;;;1.80;;
21743;SDS011;11034;48.556;9.342;2023-07-30T10:39:00;3.03;;;1.88;;
21743;SDS011;11034;48.556;9.342;2023-07-30T10:41:38;1.85;;;1.60;;
21743;SDS011;11034;48.556;9.342;2023-07-30T10:44:17;2.47;;;1.83;;
21743;SDS011;11034;48.556;9.342;2023-07-30T10:46:46;3.78;;;1.90;;
21743;SDS011;11034;48.556;9.342;2023-07-30T10:49:14;2.88;;;2.05;;
21743;SDS011;11034;48.556;9.342;2023-07-30T10:51:42;2.75;;;1.70;;
21743;SDS011;11034;48.556;9.342;2023-07-30T10:54:12;2.33;;;1.83;;
21743;SDS011;11034;48.556;9.342;2023-07-30T10:56:42;5.20;;;1.90;;
21743;SDS011;11034;48.556;9.342;2023-07-30T10:59:11;2.30;;;1.55;;
21743;SDS011;11034;48.556;9.342;2023-07-30T11:01:40;3.40;;;1.80;;
21743;SDS011;11034;48.556;9.342;2023-07-30T11:04:09;2.92;;;2.03;;
21743;SDS011;11034;48.556;9.342;2023-07-30T11:06:38;2.40;;;1.70;;
21743;SDS011;11034;48.556;9.342;2023-07-30T11:09:17;4.10;;;1.90;;
21743;SDS011;11034;48.556;9.342;2023-07-30T11:11:48;3.17;;;1.95;;
21743;SDS011;11034;48.556;9.342;2023-07-30T11:14:17;3.08;;;1.90;;
21743;SDS011;11034;48.556;9.342;2023-07-30T11:16:48;2.35;;;1.60;;
21743;SDS011;11034;48.556;9.342;2023-07-30T11:19:17;2.30;;;1.70;;
21743;SDS011;11034;48.556;9.342;2023-07-30T11:21:46;2.30;;;1.73;;
21743;SDS011;11034;48.556;9.342;2023-07-30T11:24:20;2.00;;;1.80;;
21743;SDS011;11034;48.556;9.342;2023-07-30T11:26:56;4.90;;;1.85;;
21743;SDS011;11034;48.556;9.342;2023-07-30T11:29:25;2.22;;;1.80;;
21743;SDS011;11034;48.556;9.342;2023-07-30T11:31:55;2.70;;;1.70;;
21743;SDS011;11034;48.556;9.342;2023-07-30T11:34:25;5.47;;;1.80;;
21743;SDS011;11034;48.556;9.342;2023-07-30T11:36:55;2.33;;;1.92;;
21743;SDS011;11034;48.556;9.342;2023-07-30T11:39:25;2.67;;;1.98;;
21743;SDS011;11034;48.556;9.342;2023-07-30T11:41:54;2.50;;;1.98;;
21743;SDS011;11034;48.556;9.342;2023-07-30T11:44:32;3.05;;;2.00;;
21743;SDS011;11034;48.556;9.342;2023-07-30T11:47:01;2.65;;;1.90;;
21743;SDS011;11034;48.556;9.342;2023-07-30T11:49:31;4.20;;;1.90;;
21743;SDS011;11034;48.556;9.342;2023-07-30T11:52:06;3.92;;;1.90;;
21743;SDS011;11034;48.556;9.342;2023-07-30T11:54:36;3.17;;;1.80;;
21743;SDS011;11034;48.556;9.342;2023-07-30T11:57:09;2.00;;;1.80;;
21743;SDS011;11034;48.556;9.342;2023-07-30T11:59:37;2.90;;;1.88;;
21743;SDS011;11034;48.556;9.342;2023-07-30T12:02:08;2.30;;;1.73;;
21743;SDS011;11034;48.556;9.342;2023-07-30T12:04:43;3.58;;;1.98;;
21743;SDS011;11034;48.556;9.342;2023-07-30T12:07:27;2.17;;;1.85;;
21743;SDS011;11034;48.556;9.342;2023-07-30T12:09:57;3.13;;;2.10;;
21743;SDS011;11034;48.556;9.342;2023-07-30T12:12:35;3.17;;;1.67;;
21743;SDS011;11034;48.556;9.342;2023-07-30T12:15:12;2.55;;;1.83;;
21743;SDS011;11034;48.556;9.342;2023-07-30T12:17:41;2.30;;;1.77;;
21743;SDS011;11034;48.556;9.342;2023-07-30T12:20:10;3.05;;;2.00;;
21743;SDS011;11034;48.556;9.342;2023-07-30T12:22:40;4.93;;;2.13;;
21743;SDS011;11034;48.556;9.342;2023-07-30T12:25:11;3.17;;;1.92;;
21743;SDS011;11034;48.556;9.342;2023-07-30T12:27:40;3.05;;;1.85;;
21743;SDS011;11034;48.556;9.342;2023-07-30T12:30:09;3.38;;;1.80;;
21743;SDS011;11034;48.556;9.342;2023-07-30T12:32:37;3.80;;;1.90;;
21743;SDS011;11034;48.556;9.342;2023-07-30T12:35:07;2.83;;;1.88;;
21743;SDS011;11034;48.556;9.342;2023-07-30T12:37:36;2.75;;;2.20;;
21743;SDS011;11034;48.556;9.342;2023-07-30T12:40:05;2.75;;;1.67;;
21743;SDS011;11034;48.556;9.342;2023-07-30T12:42:36;4.90;;;1.95;;
21743;SDS011;11034;48.556;9.342;2023-07-30T12:45:04;2.28;;;1.92;;
21743;SDS011;11034;48.556;9.342;2023-07-30T12:47:33;4.20;;;1.95;;
21743;SDS011;11034;48.556;9.342;2023-07-30T12:50:03;1.95;;;1.63;;
21743;SDS011;11034;48.556;9.342;2023-07-30T12:52:31;4.90;;;2.10;;
21743;SDS011;11034;48.556;9.342;2023-07-30T12:55:00;2.25;;;1.70;;
21743;SDS011;11034;48.556;9.342;2023-07-30T12:57:30;4.07;;;1.75;;
21743;SDS011;11034;48.556;9.342;2023-07-30T12:59:59;2.10;;;1.90;;
21743;SDS011;11034;48.556;9.342;2023-07-30T13:02:27;2.47;;;1.92;;
21743;SDS011;11034;48.556;9.342;2023-07-30T13:04:55;2.80;;;1.90;;
21743;SDS011;11034;48.556;9.342;2023-07-30T13:07:23;4.45;;;2.00;;
21743;SDS011;11034;48.556;9.342;2023-07-30T13:10:01;3.97;;;1.95;;
21743;SDS011;11034;48.556;9.342;2023-07-30T13:12:30;2.72;;;1.90;;
21743;SDS011;11034;48.556;9.342;2023-07-30T13:15:00;2.38;;;1.70;;
21743;SDS011;11034;48.556;9.342;2023-07-30T13:17:29;4.55;;;2.03;;
21743;SDS011;11034;48.556;9.342;2023-07-30T13:19:57;2.75;;;1.73;;
21743;SDS011;11034;48.556;9.342;2023-07-30T13:22:26;2.70;;;2.00;;
21743;SDS011;11034;48.556;9.342;2023-07-30T13:24:54;7.60;;;2.42;;
21743;SDS011;11034;48.556;9.342;2023-07-30T13:27:22;2.85;;;1.95;;
21743;SDS011;11034;48.556;9.342;2023-07-30T13:29:50;4.10;;;2.25;;
21743;SDS011;11034;48.556;9.342;2023-07-30T13:32:19;6.03;;;2.20;;
21743;SDS011;11034;48.556;9.342;2023-07-30T13:34:47;3.85;;;2.05;;
21743;SDS011;11034;48.556;9.342;2023-07-30T13:37:15;3.47;;;1.85;;
21743;SDS011;11034;48.556;9.342;2023-07-30T13:39:44;3.17;;;1.98;;
21743;SDS011;11034;48.556;9.342;2023-07-30T13:42:12;3.35;;;2.13;;
21743;SDS011;11034;48.556;9.342;2023-07-30T13:44:40;3.33;;;2.00;;
21743;SDS011;11034;48.556;9.342;2023-07-30T13:47:08;3.78;;;2.20;;
21743;SDS011;11034;48.556;9.342;2023-07-30T13:49:41;3.95;;;2.15;;
21743;SDS011;11034;48.556;9.342;2023-07-30T13:52:10;5.18;;;2.40;;
21743;SDS011;11034;48.556;9.342;2023-07-30T13:54:38;3.25;;;1.90;;
21743;SDS011;11034;48.556;9.342;2023-07-30T13:57:08;5.32;;;2.22;;
21743;SDS011;11034;48.556;9.342;2023-07-30T13:59:36;2.97;;;1.90;;
21743;SDS011;11034;48.556;9.342;2023-07-30T14:02:06;3.05;;;2.00;;
21743;SDS011;11034;48.556;9.342;2023-07-30T14:04:34;3.28;;;2.20;;
21743;SDS011;11034;48.556;9.342;2023-07-30T14:07:04;3.83;;;2.03;;
21743;SDS011;11034;48.556;9.342;2023-07-30T14:09:32;4.03;;;2.20;;
21743;SDS011;11034;48.556;9.342;2023-07-30T14:12:02;6.47;;;2.00;;
21743;SDS011;11034;48.556;9.342;2023-07-30T14:14:31;2.83;;;2.00;;
21743;SDS011;11034;48.556;9.342;2023-07-30T14:16:59;3.75;;;1.90;;
21743;SDS011;11034;48.556;9.342;2023-07-30T14:19:32;3.22;;;1.80;;
21743;SDS011;11034;48.556;9.342;2023-07-30T14:22:01;5.80;;;2.10;;
21743;SDS011;11034;48.556;9.342;2023-07-30T14:24:30;3.42;;;1.90;;
21743;SDS011;11034;48.556;9.342;2023-07-30T14:26:58;2.30;;;1.90;;
21743;SDS011;11034;48.556;9.342;2023-07-30T14:29:26;2.38;;;1.83;;
21743;SDS011;11034;48.556;9.342;2023-07-30T14:31:54;4.20;;;2.00;;
21743;SDS011;11034;48.556;9.342;2023-07-30T14:34:22;4.15;;;1.98;;
21743;SDS011;11034;48.556;9.342;2023-07-30T14:36:50;4.13;;;2.10;;
21743;SDS011;11034;48.556;9.342;2023-07-30T14:39:18;4.32;;;2.15;;
21743;SDS011;11034;48.556;9.342;2023-07-30T14:41:48;2.33;;;2.10;;
21743;SDS011;11034;48.556;9.342;2023-07-30T14:44:16;2.50;;;2.08;;
21743;SDS011;11034;48.556;9.342;2023-07-30T14:46:45;3.45;;;2.03;;
21743;SDS011;11034;48.556;9.342;2023-07-30T14:49:13;5.22;;;2.22;;
21743;SDS011;11034;48.556;9.342;2023-07-30T14:51:41;2.92;;;2.00;;
21743;SDS011;11034;48.556;9.342;2023-07-30T14:54:09;4.63;;;2.08;;
21743;SDS011;11034;48.556;9.342;2023-07-30T14:56:37;4.25;;;2.10;;
21743;SDS011;11034;48.556;9.342;2023-07-30T14:59:07;2.65;;;1.90;;